CFZ5 weather

Sundre / Goodwins Farm Airport
Sundre, Alberta, Canada

Public forecast

Using degrees Celsius for public forecast. Weather courtesy of forecast.io.

METAR (pilot weather report)

Closest report is Red Deer Regional Airport, 38.9 nm (72.1 km) NE. Retrieved 2019/07/17 18:00 UTC (19 minutes ago):

CYQF 171800Z 19007KT 150V230 15SM FEW032 FEW120 BKN280 21/12 A2968 RMK CU1AC1CI5 CU TR SLP052 DENSITY ALT 4600FT

TAF (pilot weather forecast)

Closest forecast is Red Deer Regional Airport, 38.9 nm (72.1 km) NE. Retrieved 2019/07/17 18:42 UTC (0 seconds ago):

TAF CYQF 171738Z 1718/1806 18008KT P6SM FEW040 FEW120 SCT250 FM172000 18012KT P6SM SCT050 BKN150 TEMPO 1722/1803 P6SM -SHRA BKN050 PROB30 1722/1803 4SM TSRA BKN050CB FM180300 25008KT P6SM SCT060 SCT250 RMK NXT FCST BY 180000Z